Latest Weather Observations for Cunderdin Airport

IDW60801

Issued at 7:35 am WST Wednesday 3 September 2014 (issued every 30 minutes, with the page automatically refreshed every 10 minutes)

About weather observations | Map of weather stations | Latest weather observations for WA | Other Formats
Station Details ID: 010286 Name: CUNDERDIN AIRFIELD Lat: -31.62 Lon: 117.22 Height: 216.7 m
Data from the previous 72 hours. | See also: Recent months at Cunderdin Airport
Date/Time
WST
Temp
°C
App
Temp
°C
Dew
Point
Rel
Hum
%
Delta-T
°C
Wind Press
QNH
hPa
Press
MSL
hPa
Rain
since 9 am
mm
Dir
 
Spd
km/h
Gust
km/h
Spd
kts
Gust
kts
03/07:30am 11.9 10.2 10.0 88 1.0 ESE 9 13 5 7 1021.9 1021.9 0.0
03/07:00am 10.5 8.6 9.1 91 0.7 E 9 15 5 8 1021.7 1021.7 0.0
03/06:30am 10.8 9.4 9.4 91 0.7 SSE 7 13 4 7 1021.1 1021.1 0.0
03/06:00am 10.9 9.1 9.5 91 0.7 SSE 9 13 5 7 1021.0 1021.0 0.0
03/05:30am 11.0 9.6 9.6 91 0.7 S 7 11 4 6 1020.9 1020.9 0.0
03/05:00am 11.5 9.4 9.9 90 0.8 S 11 15 6 8 1020.4 1020.3 0.0
03/04:30am 11.0 10.1 9.4 90 0.8 SW 4 6 2 3 1020.3 1020.2 0.0
03/04:00am 11.3 10.1 9.7 90 0.8 SW 6 7 3 4 1019.9 1019.8 0.0
03/03:30am 11.2 10.1 9.9 92 0.7 S 6 9 3 5 1019.9 1019.8 0.0
03/03:00am 10.8 9.6 9.6 92 0.6 W 6 7 3 4 1020.0 1019.9 0.0
03/02:30am 11.2 10.5 9.9 92 0.7 WSW 4 6 2 3 1019.9 1019.8 0.0
03/02:00am 11.1 11.2 10.0 93 0.6 CALM 0 0 0 0 1019.8 1019.7 0.0
03/01:30am 11.5 10.9 10.4 93 0.6 SSW 4 7 2 4 1019.6 1019.5 0.0
03/01:00am 11.7 10.6 10.6 93 0.6 W 7 9 4 5 1019.5 1019.4 0.0
03/12:30am 12.0 11.2 11.1 94 0.5 W 6 7 3 4 1019.8 1019.7 0.0
03/12:00am 12.0 11.6 11.1 94 0.5 WNW 4 9 2 5 1019.9 1019.8 0.0
 
Date/Time
WST
Temp
°C
App
Temp
°C
Dew
Point
Rel
Hum
%
Delta-T
°C
Wind Press
QNH
hPa
Press
MSL
hPa
Rain
since 9 am
mm
Dir
 
Spd
km/h
Gust
km/h
Spd
kts
Gust
kts
02/11:30pm 12.2 11.3 11.3 94 0.5 W 7 9 4 5 1019.5 1019.4 0.0
02/11:00pm 12.3 12.7 11.2 93 0.6 CALM 0 0 0 0 1019.6 1019.5 0.0
02/10:30pm 13.0 11.9 11.9 93 0.6 WSW 9 11 5 6 1019.6 1019.5 0.0
02/10:00pm 12.8 12.1 11.5 92 0.7 W 6 13 3 7 1020.0 1019.9 0.0
02/09:30pm 13.2 12.1 11.8 91 0.8 W 9 11 5 6 1019.6 1019.5 0.0
02/09:00pm 14.1 12.4 12.5 90 0.9 WNW 13 15 7 8 1019.7 1019.6 0.0
02/08:30pm 14.5 13.6 12.7 89 1.0 W 9 11 5 6 1019.6 1019.5 0.0
02/08:00pm 14.9 13.3 12.9 88 1.1 W 13 17 7 9 1019.1 1019.1 0.0
02/07:30pm 15.2 13.6 12.9 86 1.3 W 13 15 7 8 1018.6 1018.6 0.0
02/07:00pm 15.5 14.6 12.6 83 1.6 WNW 9 13 5 7 1018.1 1018.1 0.0
02/06:30pm 16.0 14.7 12.6 80 1.9 W 11 15 6 8 1018.1 1018.1 0.0
02/06:00pm 16.5 15.2 12.5 77 2.2 W 11 13 6 7 1017.3 1017.3 0.0
02/05:30pm 16.7 15.6 13.2 80 2.0 NW 11 11 6 6 1017.2 1017.2 0.0
02/05:00pm 17.4 17.7 14.5 83 1.7 WNW 6 9 3 5 1016.7 1016.7 0.0
02/04:30pm 18.0 17.6 14.1 78 2.3 WSW 9 13 5 7 1016.5 1016.5 0.0
02/04:00pm 18.5 16.0 14.2 76 2.5 WSW 20 28 11 15 1016.2 1016.1 0.0
02/03:30pm 19.3 20.3 13.2 68 3.5 CALM 0 0 0 0 1015.3 1015.2 0.0
02/03:00pm 19.3 19.4 13.9 71 3.1 SSE 6 7 3 4 1015.2 1015.1 0.0
02/02:30pm 18.7 18.3 14.0 74 2.7 S 9 11 5 6 1015.4 1015.3 0.0
02/02:00pm 19.5 20.7 13.9 70 3.2 CALM 0 0 0 0 1015.6 1015.5 0.0
02/01:30pm 19.6 20.6 13.3 67 3.6 CALM 0 0 0 0 1015.7 1015.6 0.0
02/01:00pm 19.9 20.4 11.7 59 4.6 CALM 0 6 0 3 1016.1 1016.0 0.0
02/12:30pm 19.6 20.2 11.9 61 4.3 CALM 0 0 0 0 1016.3 1016.2 0.0
02/12:00pm 19.2 18.6 11.7 62 4.2 ENE 6 11 3 6 1016.7 1016.7 0.0
02/11:30am 18.1 16.8 11.4 65 3.7 ENE 9 11 5 6 1017.1 1017.1 0.0
02/11:00am 17.5 15.4 11.1 66 3.5 NE 13 17 7 9 1018.0 1018.0 0.0
02/10:30am 17.7 15.3 11.3 66 3.5 E 15 19 8 10 1017.6 1017.6 0.0
02/10:00am 16.0 14.3 9.7 66 3.3 ENE 9 13 5 7 1018.4 1018.4 0.0
02/09:30am 16.0 13.9 9.9 67 3.2 E 11 15 6 8 1018.4 1018.4 0.0
02/09:00am 15.2 13.7 10.6 74 2.4 SE 9 11 5 6 1018.5 1018.5 0.0
02/08:30am 13.4 10.9 9.8 79 1.9 SSW 13 17 7 9 1019.4 1019.3 0.0
02/08:00am 13.4 11.7 9.8 79 1.9 SSW 9 11 5 6 1018.7 1018.7 0.0
02/07:30am 12.6 10.7 9.2 80 1.7 SSW 9 13 5 7 1018.3 1018.3 0.0
02/07:00am 12.3 9.5 8.6 78 1.9 ENE 13 19 7 10 1017.6 1017.6 0.0
02/06:30am 11.3 7.2 8.7 84 1.3 ENE 20 22 11 12 1017.1 1017.1 0.0
02/06:00am 11.9 10.3 8.2 78 1.8 WSW 6 9 3 5 1018.0 1018.0 0.0
02/05:30am 12.0 7.7 7.9 76 2.0 E 20 30 11 16 1016.6 1016.6 0.0
02/05:00am 12.3 9.7 7.6 73 2.3 SE 11 15 6 8 1017.6 1017.6 0.0
02/04:30am 12.1 9.8 7.6 74 2.2 SE 9 13 5 7 1017.5 1017.5 0.0
02/04:00am 12.0 9.0 7.5 74 2.2 ESE 13 17 7 9 1017.4 1017.4 0.0
02/03:30am 12.2 9.2 7.5 73 2.3 SE 13 17 7 9 1017.2 1017.2 0.0
02/03:00am 12.1 9.4 7.4 73 2.3 SE 11 15 6 8 1017.6 1017.6 0.0
02/02:30am 12.1 9.8 7.4 73 2.3 ESE 9 13 5 7 1018.0 1018.0 0.0
02/02:00am 12.1 9.8 7.4 73 2.3 ESE 9 13 5 7 1018.3 1018.3 0.0
02/01:30am 12.0 10.1 7.5 74 2.2 ESE 7 11 4 6 1018.7 1018.7 0.0
02/01:00am 11.7 9.9 7.8 77 1.9 E 7 11 4 6 1019.1 1019.1 0.0
02/12:30am 12.0 9.8 7.7 75 2.1 E 9 13 5 7 1019.4 1019.3 0.0
02/12:00am 12.5 9.7 7.0 69 2.7 ESE 11 15 6 8 1019.8 1019.7 0.0
 
Date/Time
WST
Temp
°C
App
Temp
°C
Dew
Point
Rel
Hum
%
Delta-T
°C
Wind Press
QNH
hPa
Press
MSL
hPa
Rain
since 9 am
mm
Dir
 
Spd
km/h
Gust
km/h
Spd
kts
Gust
kts
01/11:30pm 12.4 9.7 7.3 71 2.5 SE 11 17 6 9 1020.0 1019.9 0.0
01/11:00pm 11.9 10.1 8.0 77 1.9 SE 7 11 4 6 1020.6 1020.6 0.0
01/10:30pm 11.6 9.5 8.1 79 1.7 E 9 11 5 6 1020.5 1020.5 0.0
01/10:00pm 11.4 9.3 8.1 80 1.6 E 9 11 5 6 1020.8 1020.8 0.0
01/09:30pm 11.0 8.9 8.2 83 1.4 ENE 9 11 5 6 1020.9 1020.9 0.0
01/09:00pm 11.8 9.5 7.3 74 2.2 E 9 11 5 6 1021.3 1021.3 0.0
01/08:30pm 11.9 9.6 7.4 74 2.2 E 9 11 5 6 1021.3 1021.3 0.0
01/08:00pm 12.3 9.9 7.2 71 2.5 E 9 13 5 7 1020.9 1020.9 0.0
01/07:30pm 12.9 9.8 7.1 68 2.8 ESE 13 17 7 9 1021.1 1021.1 0.0
01/07:00pm 13.0 9.6 7.7 70 2.6 SE 15 17 8 9 1021.1 1021.1 0.0
01/06:30pm 13.0 10.0 7.9 71 2.5 SE 13 17 7 9 1021.1 1021.1 0.0
01/06:00pm 14.0 11.3 7.5 65 3.2 SE 11 13 6 7 1021.0 1021.0 0.0
01/05:30pm 14.7 12.3 6.8 59 3.9 SE 9 15 5 8 1021.0 1021.0 0.0
01/05:00pm 15.4 12.9 6.7 56 4.3 E 9 13 5 7 1020.4 1020.3 0.0
01/04:30pm 15.8 12.0 6.0 52 4.8 E 15 20 8 11 1020.7 1020.7 0.0
01/04:00pm 16.2 12.5 6.1 51 4.9 E 15 20 8 11 1021.0 1021.0 0.0
01/03:30pm 16.3 12.2 6.2 51 5.0 E 17 20 9 11 1020.9 1020.9 0.0
01/03:00pm 16.5 12.4 6.3 51 5.0 ENE 17 22 9 12 1021.0 1021.0 0.0
01/02:30pm 17.1 13.0 6.3 49 5.4 ENE 17 22 9 12 1021.3 1021.3 0.0
01/02:00pm 16.4 11.9 6.2 51 5.0 E 19 28 10 15 1021.2 1021.2 0.0
01/01:30pm 15.7 11.1 6.7 55 4.5 E 20 30 11 16 1021.8 1021.8 0.0
01/01:00pm 15.9 11.3 6.3 53 4.7 E 20 28 11 15 1022.3 1022.3 0.0
01/12:30pm 15.5 11.2 7.0 57 4.2 ENE 19 28 10 15 1023.1 1023.1 0.0
01/12:00pm 15.0 10.5 6.3 56 4.2 ENE 19 26 10 14 1023.2 1023.2 0.0
01/11:30am 14.9 10.0 6.7 58 4.0 ENE 22 28 12 15 1024.1 1024.0 0.0
01/11:00am 15.2 10.6 8.0 62 3.6 E 22 30 12 16 1023.8 1023.8 0.0
01/10:30am 14.0 10.0 8.2 68 2.9 ENE 19 24 10 13 1024.4 1024.4 0.0
01/10:00am 13.0 8.3 7.9 71 2.5 ENE 22 30 12 16 1024.3 1024.2 0.0
01/09:30am 12.0 7.0 7.9 76 2.0 ENE 24 32 13 17 1024.7 1024.7 0.0
01/09:00am 10.9 6.2 7.8 81 1.5 E 22 30 12 16 1024.7 1024.7 0.0
01/08:30am 9.8 6.0 7.6 86 1.1 E 17 22 9 12 1024.5 1024.5 0.0
01/08:00am 8.3 5.2 7.1 92 0.6 ESE 13 17 7 9 1024.5 1024.5 0.0
01/07:30am 7.1 4.5 6.2 94 0.4 ESE 9 13 5 7 1024.4 1024.5 0.0
01/07:00am 6.2 3.4 5.3 94 0.4 ESE 9 11 5 6 1024.2 1024.3 0.0
01/06:30am 5.6 2.7 4.6 93 0.4 E 9 11 5 6 1023.5 1023.7 0.0
01/06:00am 6.4 3.7 5.4 93 0.4 ESE 9 13 5 7 1022.9 1023.1 0.0
01/05:30am 6.3 3.5 5.1 92 0.5 E 9 13 5 7 1022.5 1022.7 0.0
01/05:00am 6.7 3.9 5.2 90 0.7 E 9 13 5 7 1022.5 1022.7 0.0
01/04:30am 7.3 4.2 5.6 89 0.8 ESE 11 15 6 8 1022.6 1022.8 0.0
01/04:00am 7.5 4.4 5.6 88 0.9 ESE 11 15 6 8 1022.3 1022.5 0.0
01/03:30am 7.6 4.9 5.6 87 0.9 ESE 9 13 5 7 1022.2 1022.4 0.0
01/03:00am 8.2 4.8 6.0 86 1.0 ESE 13 17 7 9 1022.0 1022.1 0.0
01/02:30am 8.3 5.7 6.1 86 1.0 ESE 9 15 5 8 1022.4 1022.6 0.0
01/02:00am 8.3 6.1 6.1 86 1.0 ESE 7 13 4 7 1022.3 1022.5 0.0
01/01:30am 8.7 6.5 6.2 84 1.2 ESE 7 9 4 5 1022.1 1022.3 0.0
01/01:00am 9.3 6.3 6.2 81 1.4 ESE 11 13 6 7 1021.9 1022.0 0.0
01/12:30am 9.8 6.9 6.7 81 1.5 ESE 11 17 6 9 1022.0 1022.1 0.0
01/12:00am 10.6 7.5 7.1 79 1.7 SE 13 17 7 9 1022.0 1022.1 0.0
 
Date/Time
WST
Temp
°C
App
Temp
°C
Dew
Point
Rel
Hum
%
Delta-T
°C
Wind Press
QNH
hPa
Press
MSL
hPa
Rain
since 9 am
mm
Dir
 
Spd
km/h
Gust
km/h
Spd
kts
Gust
kts
31/11:30pm 11.1 7.7 7.8 80 1.6 SSE 15 20 8 11 1021.9 1022.0 0.0
31/11:00pm 11.2 10.5 8.4 83 1.4 SSE 2 6 1 3 1021.9 1022.0 0.0
31/10:30pm 11.3 10.0 9.2 87 1.1 S 6 7 3 4 1022.3 1022.5 0.0
31/10:00pm 11.1 9.9 9.4 89 0.9 S 6 9 3 5 1022.2 1022.4 0.0
31/09:30pm 10.9 10.3 9.0 88 1.0 E 2 6 1 3 1022.0 1022.1 0.0
31/09:00pm 11.5 10.1 8.7 83 1.4 ESE 6 7 3 4 1021.8 1021.9 0.0
31/08:30pm 11.4 9.9 9.3 87 1.1 SE 7 9 4 5 1021.4 1021.5 0.0
31/08:00pm 11.1 10.1 8.7 85 1.2 S 4 9 2 5 1021.4 1021.5 0.0
31/07:30pm 11.7 10.4 9.3 85 1.2 S 6 7 3 4 1021.2 1021.3 0.0
31/07:00pm 12.0 10.6 9.6 85 1.2 S 7 7 4 4 1021.0 1021.1 0.0
31/06:30pm 11.9 10.5 9.5 85 1.2 S 7 9 4 5 1020.5 1020.6 0.0
31/06:00pm 12.7 10.9 9.3 80 1.7 S 9 11 5 6 1020.3 1020.4 0.0
31/05:30pm 13.7 11.5 9.2 74 2.3 SSW 11 13 6 7 1020.2 1020.3 0.0
31/05:00pm 14.5 12.7 9.3 71 2.7 SSW 9 13 5 7 1019.9 1020.0 0.0
31/04:30pm 15.2 12.9 8.9 66 3.2 S 11 13 6 7 1019.5 1019.6 0.0
31/04:00pm 15.8 13.9 9.0 64 3.5 S 9 13 5 7 1018.9 1019.1 0.0
31/03:30pm 15.3 12.7 9.4 68 3.1 SSW 13 15 7 8 1019.1 1019.3 0.0
31/03:00pm 16.3 14.3 8.5 60 4.0 SW 9 15 5 8 1018.9 1019.1 0.0
31/02:30pm 16.7 14.1 9.4 62 3.8 SSW 13 17 7 9 1018.6 1018.8 0.0
31/02:00pm 15.8 13.7 8.1 60 3.9 SSW 9 13 5 7 1018.9 1019.1 0.0
31/01:30pm 16.8 15.3 9.0 60 4.1 WSW 7 13 4 7 1019.0 1019.2 0.0
31/01:00pm 16.6 15.0 10.2 66 3.4 SSW 9 15 5 8 1018.8 1019.0 0.0
31/12:30pm 16.0 14.6 9.7 66 3.3 SW 7 15 4 8 1019.4 1019.5 0.0
31/12:00pm 14.7 13.5 9.5 71 2.7 SW 6 15 3 8 1019.8 1019.9 0.0
31/11:30am 14.8 14.1 10.0 73 2.5 SSW 4 13 2 7 1019.8 1019.9 0.0
31/11:00am 14.4 14.0 9.6 73 2.5 SSE 2 9 1 5 1019.6 1019.7 0.0
31/10:30am 13.7 11.3 9.9 78 2.0 S 13 17 7 9 1020.1 1020.2 0.0
31/10:00am 13.8 11.2 10.8 82 1.6 SSW 15 19 8 10 1020.1 1020.2 0.0
31/09:30am 13.8 12.8 11.0 83 1.5 SSW 7 11 4 6 1020.0 1020.1 0.0
31/09:00am 13.0 13.6 11.9 93 0.6 CALM 0 0 0 0 1019.8 1019.9 0.2
31/08:30am 12.0 11.3 11.4 96 0.3 S 6 9 3 5 1019.8 1019.9 0.2
31/08:00am 11.0 10.1 10.5 97 0.3 SW 6 11 3 6 1019.5 1019.6 0.2

Other Formats:

Comma delimited format used in spreadsheet applications
http://www.bom.gov.au/fwo/IDW60801/IDW60801.95625.axf

JavaScript Object Notation format (JSON) in row-major order
http://www.bom.gov.au/fwo/IDW60801/IDW60801.95625.json